CheckWX is a tool to help pilots better visualize weather data.  It is not intended as a substitute for an official pre-flight weather briefing.

00:41:14 UTC

CYKD METAR
Aklavik Airport
Aklavik, Canada
Current

2 hours ago

CYKD 262300Z 16007KT 15SM FEW050 SCT240 05/M03 A3007 RMK SC1CI2 SSS AFT 13UTC 0.0/LAST STFD OBS/NXT 271300Z SLP183
Observed
Mar-26 @ 23:00 UTC
Wind
  • 160° at 7 KTS
Visibility
15 SM
Flight Rules
VFR
Cloud Levels
  • Few at 5,000' AGL
  • Scattered at 24,000' AGL
Temperature
C / 41°F
Dewpoint
-3°C / 27°F
Humidity
57%
Altimeter
30.07" Hg
Pressure
1018.3 hPa
Previous

3 hours ago

CYKD 262200Z 13006KT 15SM FEW040 FEW240 04/M02 A3008 RMK SC1CI1 SC TR SLP187
Observed
Mar-26 @ 22:00 UTC
Wind
  • 130° at 6 KTS
Visibility
15 SM
Flight Rules
VFR
Cloud Levels
  • Few at 4,000' AGL
  • Few at 24,000' AGL
Temperature
C / 39°F
Dewpoint
-2°C / 28°F
Humidity
65%
Altimeter
30.08" Hg
Pressure
1018.7 hPa
Previous

4 hours ago

CYKD 262100Z 15006KT 15SM FEW080 04/M02 A3009 RMK AC1 AC TR SLP192
Observed
Mar-26 @ 21:00 UTC
Wind
  • 150° at 6 KTS
Visibility
15 SM
Flight Rules
VFR
Cloud Levels
  • Few at 8,000' AGL
Temperature
C / 39°F
Dewpoint
-2°C / 28°F
Humidity
65%
Altimeter
30.09" Hg
Pressure
1019.2 hPa